sensor_id;sensor_type;location;lat;lon;timestamp;pressure;altitude;pressure_sealevel;temperature;humidity
59106;BME280;44891;50.204;8.132;2023-02-23T00:03:10;97834.59;;;8.66;98.03
59106;BME280;44891;50.204;8.132;2023-02-23T00:07:13;97833.97;;;8.76;97.93
59106;BME280;44891;50.204;8.132;2023-02-23T00:11:19;97840.25;;;8.75;97.97
59106;BME280;44891;50.204;8.132;2023-02-23T00:15:21;97831.69;;;8.79;98.44
59106;BME280;44891;50.204;8.132;2023-02-23T00:19:26;97826.59;;;8.73;99.90
59106;BME280;44891;50.204;8.132;2023-02-23T00:23:29;97832.00;;;8.83;99.46
59106;BME280;44891;50.204;8.132;2023-02-23T00:27:31;97822.00;;;8.80;99.86
59106;BME280;44891;50.204;8.132;2023-02-23T00:31:33;97833.13;;;8.87;98.42
59106;BME280;44891;50.204;8.132;2023-02-23T00:35:35;97827.66;;;8.88;97.13
59106;BME280;44891;50.204;8.132;2023-02-23T00:39:38;97827.69;;;8.77;97.79
59106;BME280;44891;50.204;8.132;2023-02-23T00:43:40;97825.22;;;8.53;100.00
59106;BME280;44891;50.204;8.132;2023-02-23T00:47:47;97825.47;;;8.68;100.00
59106;BME280;44891;50.204;8.132;2023-02-23T00:51:49;97830.16;;;8.66;100.00
59106;BME280;44891;50.204;8.132;2023-02-23T00:55:53;97830.09;;;8.78;100.00
59106;BME280;44891;50.204;8.132;2023-02-23T00:59:55;97838.13;;;8.88;100.00
59106;BME280;44891;50.204;8.132;2023-02-23T01:04:00;97830.03;;;8.90;98.72
59106;BME280;44891;50.204;8.132;2023-02-23T01:08:02;97829.63;;;8.81;98.93
59106;BME280;44891;50.204;8.132;2023-02-23T01:12:10;97823.25;;;8.60;100.00
59106;BME280;44891;50.204;8.132;2023-02-23T01:16:12;97824.53;;;8.75;100.00
59106;BME280;44891;50.204;8.132;2023-02-23T01:20:15;97820.34;;;8.74;100.00
59106;BME280;44891;50.204;8.132;2023-02-23T01:24:19;97829.88;;;8.80;100.00
59106;BME280;44891;50.204;8.132;2023-02-23T01:28:22;97826.53;;;8.84;100.00
59106;BME280;44891;50.204;8.132;2023-02-23T01:32:24;97825.19;;;8.82;100.00
59106;BME280;44891;50.204;8.132;2023-02-23T01:36:26;97822.41;;;8.71;100.00
59106;BME280;44891;50.204;8.132;2023-02-23T01:40:28;97832.00;;;8.83;100.00
59106;BME280;44891;50.204;8.132;2023-02-23T01:48:53;97825.09;;;8.77;100.00
59106;BME280;44891;50.204;8.132;2023-02-23T01:52:56;97826.38;;;8.74;100.00
59106;BME280;44891;50.204;8.132;2023-02-23T01:56:59;97826.38;;;8.74;100.00
59106;BME280;44891;50.204;8.132;2023-02-23T02:01:02;97819.69;;;8.66;100.00
59106;BME280;44891;50.204;8.132;2023-02-23T02:05:05;97821.59;;;8.71;100.00
59106;BME280;44891;50.204;8.132;2023-02-23T02:09:14;97816.34;;;8.71;100.00
59106;BME280;44891;50.204;8.132;2023-02-23T02:13:18;97811.97;;;8.60;100.00
59106;BME280;44891;50.204;8.132;2023-02-23T02:17:23;97819.09;;;8.64;100.00
59106;BME280;44891;50.204;8.132;2023-02-23T02:21:39;97817.72;;;8.74;100.00
59106;BME280;44891;50.204;8.132;2023-02-23T02:25:49;97803.41;;;8.64;100.00
59106;BME280;44891;50.204;8.132;2023-02-23T02:30:02;97807.41;;;8.67;100.00
59106;BME280;44891;50.204;8.132;2023-02-23T02:34:27;97804.69;;;8.62;100.00
59106;BME280;44891;50.204;8.132;2023-02-23T02:38:40;97799.78;;;8.65;100.00
59106;BME280;44891;50.204;8.132;2023-02-23T02:42:58;97801.59;;;8.65;100.00
59106;BME280;44891;50.204;8.132;2023-02-23T02:47:03;97801.97;;;8.57;100.00
59106;BME280;44891;50.204;8.132;2023-02-23T02:51:10;97801.38;;;8.66;100.00
59106;BME280;44891;50.204;8.132;2023-02-23T02:55:19;97795.00;;;8.62;100.00
59106;BME280;44891;50.204;8.132;2023-02-23T02:59:24;97789.31;;;8.65;100.00
59106;BME280;44891;50.204;8.132;2023-02-23T03:03:44;97782.81;;;8.68;100.00
59106;BME280;44891;50.204;8.132;2023-02-23T03:08:08;97787.50;;;8.66;100.00
59106;BME280;44891;50.204;8.132;2023-02-23T03:12:32;97781.38;;;8.60;100.00
59106;BME280;44891;50.204;8.132;2023-02-23T03:16:59;97777.47;;;8.63;100.00
59106;BME280;44891;50.204;8.132;2023-02-23T03:21:21;97785.56;;;8.61;100.00
59106;BME280;44891;50.204;8.132;2023-02-23T03:25:45;97790.47;;;8.58;100.00
59106;BME280;44891;50.204;8.132;2023-02-23T03:30:09;97792.63;;;8.61;100.00
59106;BME280;44891;50.204;8.132;2023-02-23T03:34:35;97792.28;;;8.57;100.00
59106;BME280;44891;50.204;8.132;2023-02-23T03:39:00;97796.50;;;8.58;100.00
59106;BME280;44891;50.204;8.132;2023-02-23T03:43:21;97796.63;;;8.52;100.00
59106;BME280;44891;50.204;8.132;2023-02-23T03:47:43;97797.59;;;8.34;100.00
59106;BME280;44891;50.204;8.132;2023-02-23T03:52:04;97793.06;;;8.41;100.00
59106;BME280;44891;50.204;8.132;2023-02-23T03:56:27;97792.78;;;8.54;100.00
59106;BME280;44891;50.204;8.132;2023-02-23T04:00:51;97794.25;;;8.50;100.00
59106;BME280;44891;50.204;8.132;2023-02-23T04:05:16;97795.63;;;8.53;100.00
59106;BME280;44891;50.204;8.132;2023-02-23T04:09:36;97798.78;;;8.55;100.00
59106;BME280;44891;50.204;8.132;2023-02-23T04:13:57;97800.25;;;8.62;100.00
59106;BME280;44891;50.204;8.132;2023-02-23T04:17:59;97799.53;;;8.67;100.00
59106;BME280;44891;50.204;8.132;2023-02-23T04:22:05;97796.22;;;8.71;100.00
59106;BME280;44891;50.204;8.132;2023-02-23T04:26:07;97802.16;;;8.67;100.00
59106;BME280;44891;50.204;8.132;2023-02-23T04:30:09;97803.34;;;8.59;100.00
59106;BME280;44891;50.204;8.132;2023-02-23T04:34:11;97805.91;;;8.42;100.00
59106;BME280;44891;50.204;8.132;2023-02-23T04:38:15;97804.44;;;8.35;100.00
59106;BME280;44891;50.204;8.132;2023-02-23T04:42:17;97805.44;;;8.46;100.00
59106;BME280;44891;50.204;8.132;2023-02-23T04:46:19;97814.34;;;8.61;100.00
59106;BME280;44891;50.204;8.132;2023-02-23T04:50:21;97808.22;;;8.56;100.00
59106;BME280;44891;50.204;8.132;2023-02-23T04:54:24;97804.34;;;8.58;100.00
59106;BME280;44891;50.204;8.132;2023-02-23T04:58:26;97810.59;;;8.57;100.00
59106;BME280;44891;50.204;8.132;2023-02-23T05:02:28;97806.97;;;8.58;100.00
59106;BME280;44891;50.204;8.132;2023-02-23T05:06:30;97808.28;;;8.44;100.00
59106;BME280;44891;50.204;8.132;2023-02-23T05:10:33;97798.53;;;8.28;100.00
59106;BME280;44891;50.204;8.132;2023-02-23T05:14:35;97795.03;;;8.22;100.00
59106;BME280;44891;50.204;8.132;2023-02-23T05:18:38;97802.06;;;8.33;100.00
59106;BME280;44891;50.204;8.132;2023-02-23T05:22:40;97802.84;;;8.34;100.00
59106;BME280;44891;50.204;8.132;2023-02-23T05:26:43;97803.38;;;8.48;100.00
59106;BME280;44891;50.204;8.132;2023-02-23T05:30:45;97805.59;;;8.39;100.00
59106;BME280;44891;50.204;8.132;2023-02-23T05:34:47;97799.44;;;8.33;100.00
59106;BME280;44891;50.204;8.132;2023-02-23T05:38:49;97808.91;;;8.23;100.00
59106;BME280;44891;50.204;8.132;2023-02-23T05:42:52;97811.63;;;8.28;100.00
59106;BME280;44891;50.204;8.132;2023-02-23T05:46:58;97810.69;;;8.46;100.00
59106;BME280;44891;50.204;8.132;2023-02-23T05:51:00;97815.34;;;8.32;100.00
59106;BME280;44891;50.204;8.132;2023-02-23T05:55:03;97813.34;;;8.22;100.00
59106;BME280;44891;50.204;8.132;2023-02-23T05:59:06;97813.69;;;8.26;100.00
59106;BME280;44891;50.204;8.132;2023-02-23T06:03:08;97821.44;;;8.09;100.00
59106;BME280;44891;50.204;8.132;2023-02-23T06:07:10;97814.94;;;8.11;100.00
59106;BME280;44891;50.204;8.132;2023-02-23T06:11:12;97817.06;;;8.38;100.00
59106;BME280;44891;50.204;8.132;2023-02-23T06:15:15;97822.16;;;8.44;100.00
59106;BME280;44891;50.204;8.132;2023-02-23T06:19:18;97827.03;;;8.53;100.00
59106;BME280;44891;50.204;8.132;2023-02-23T06:23:20;97824.19;;;8.54;100.00
59106;BME280;44891;50.204;8.132;2023-02-23T06:27:22;97831.25;;;8.54;100.00
59106;BME280;44891;50.204;8.132;2023-02-23T06:31:25;97834.25;;;8.62;100.00
59106;BME280;44891;50.204;8.132;2023-02-23T06:35:27;97839.84;;;8.66;100.00
59106;BME280;44891;50.204;8.132;2023-02-23T06:39:29;97835.16;;;8.68;100.00
59106;BME280;44891;50.204;8.132;2023-02-23T06:43:30;97840.97;;;8.58;100.00
59106;BME280;44891;50.204;8.132;2023-02-23T06:47:34;97843.16;;;8.61;100.00
59106;BME280;44891;50.204;8.132;2023-02-23T06:51:36;97854.00;;;8.53;100.00
59106;BME280;44891;50.204;8.132;2023-02-23T06:55:38;97847.38;;;8.51;100.00
59106;BME280;44891;50.204;8.132;2023-02-23T06:59:39;97855.84;;;8.41;100.00
59106;BME280;44891;50.204;8.132;2023-02-23T07:03:43;97858.56;;;8.46;100.00
59106;BME280;44891;50.204;8.132;2023-02-23T07:07:45;97856.81;;;8.52;100.00
59106;BME280;44891;50.204;8.132;2023-02-23T07:11:47;97856.69;;;8.58;100.00
59106;BME280;44891;50.204;8.132;2023-02-23T07:15:49;97858.06;;;8.61;100.00
59106;BME280;44891;50.204;8.132;2023-02-23T07:19:52;97867.91;;;8.70;100.00
59106;BME280;44891;50.204;8.132;2023-02-23T07:23:55;97865.78;;;8.67;100.00
59106;BME280;44891;50.204;8.132;2023-02-23T07:27:56;97867.91;;;8.70;100.00
59106;BME280;44891;50.204;8.132;2023-02-23T07:31:59;97872.16;;;8.71;100.00
59106;BME280;44891;50.204;8.132;2023-02-23T07:36:02;97872.88;;;8.55;100.00
59106;BME280;44891;50.204;8.132;2023-02-23T07:40:05;97846.41;;;8.40;100.00
59106;BME280;44891;50.204;8.132;2023-02-23T07:44:07;97886.22;;;8.70;100.00
59106;BME280;44891;50.204;8.132;2023-02-23T07:48:09;97886.47;;;8.69;100.00
59106;BME280;44891;50.204;8.132;2023-02-23T07:52:12;97894.81;;;8.66;100.00
59106;BME280;44891;50.204;8.132;2023-02-23T07:56:17;97899.66;;;8.74;100.00
59106;BME280;44891;50.204;8.132;2023-02-23T08:00:19;97894.75;;;8.78;100.00
59106;BME280;44891;50.204;8.132;2023-02-23T08:04:21;97898.50;;;8.82;100.00
59106;BME280;44891;50.204;8.132;2023-02-23T08:08:24;97898.84;;;8.85;100.00
59106;BME280;44891;50.204;8.132;2023-02-23T08:12:26;97905.50;;;8.93;100.00
59106;BME280;44891;50.204;8.132;2023-02-23T08:16:28;97900.97;;;8.88;100.00
59106;BME280;44891;50.204;8.132;2023-02-23T08:20:31;97900.59;;;8.96;100.00
59106;BME280;44891;50.204;8.132;2023-02-23T08:24:34;97902.03;;;9.04;100.00
59106;BME280;44891;50.204;8.132;2023-02-23T08:28:36;97908.88;;;9.05;100.00
59106;BME280;44891;50.204;8.132;2023-02-23T08:32:41;97906.06;;;8.95;100.00
59106;BME280;44891;50.204;8.132;2023-02-23T08:36:43;97906.91;;;9.12;100.00
59106;BME280;44891;50.204;8.132;2023-02-23T08:40:46;97905.63;;;9.15;100.00
59106;BME280;44891;50.204;8.132;2023-02-23T08:44:48;97910.25;;;9.24;100.00
59106;BME280;44891;50.204;8.132;2023-02-23T08:48:50;97908.75;;;9.29;100.00
59106;BME280;44891;50.204;8.132;2023-02-23T08:52:52;97922.09;;;9.44;100.00
59106;BME280;44891;50.204;8.132;2023-02-23T08:56:56;97913.59;;;9.53;100.00
59106;BME280;44891;50.204;8.132;2023-02-23T09:00:58;97914.78;;;9.79;100.00
59106;BME280;44891;50.204;8.132;2023-02-23T09:05:00;97918.56;;;10.05;100.00
59106;BME280;44891;50.204;8.132;2023-02-23T09:09:02;97921.03;;;10.12;100.00
59106;BME280;44891;50.204;8.132;2023-02-23T09:13:05;97926.50;;;10.27;100.00
59106;BME280;44891;50.204;8.132;2023-02-23T09:17:07;97920.16;;;10.45;100.00
59106;BME280;44891;50.204;8.132;2023-02-23T09:21:12;97926.88;;;10.58;100.00
59106;BME280;44891;50.204;8.132;2023-02-23T09:25:18;97929.00;;;10.61;100.00
59106;BME280;44891;50.204;8.132;2023-02-23T09:29:23;97880.66;;;10.57;100.00
59106;BME280;44891;50.204;8.132;2023-02-23T09:33:25;97928.16;;;10.77;100.00
59106;BME280;44891;50.204;8.132;2023-02-23T09:37:27;97941.31;;;10.82;100.00
59106;BME280;44891;50.204;8.132;2023-02-23T09:41:34;97939.06;;;10.69;100.00
59106;BME280;44891;50.204;8.132;2023-02-23T09:45:46;97940.25;;;10.56;100.00
59106;BME280;44891;50.204;8.132;2023-02-23T09:49:50;97943.06;;;10.72;100.00
59106;BME280;44891;50.204;8.132;2023-02-23T09:53:52;97940.25;;;10.78;98.92
59106;BME280;44891;50.204;8.132;2023-02-23T09:57:56;97937.63;;;11.05;97.48
59106;BME280;44891;50.204;8.132;2023-02-23T10:02:01;97936.50;;;10.96;97.18
59106;BME280;44891;50.204;8.132;2023-02-23T10:06:07;97950.31;;;10.86;96.81
59106;BME280;44891;50.204;8.132;2023-02-23T10:10:14;97944.88;;;10.93;95.46
59106;BME280;44891;50.204;8.132;2023-02-23T10:14:28;97941.75;;;10.96;95.76
59106;BME280;44891;50.204;8.132;2023-02-23T10:18:38;97949.16;;;10.77;96.78
59106;BME280;44891;50.204;8.132;2023-02-23T10:22:41;97947.50;;;10.71;95.61
59106;BME280;44891;50.204;8.132;2023-02-23T10:26:45;97954.91;;;10.74;96.98
59106;BME280;44891;50.204;8.132;2023-02-23T10:30:48;97955.88;;;10.68;98.15
59106;BME280;44891;50.204;8.132;2023-02-23T10:34:52;97959.00;;;10.65;100.00
59106;BME280;44891;50.204;8.132;2023-02-23T10:38:56;97962.47;;;10.49;100.00
59106;BME280;44891;50.204;8.132;2023-02-23T10:42:58;97967.69;;;10.27;100.00
59106;BME280;44891;50.204;8.132;2023-02-23T10:47:01;97969.84;;;10.13;100.00
59106;BME280;44891;50.204;8.132;2023-02-23T10:51:08;97974.59;;;10.16;100.00
59106;BME280;44891;50.204;8.132;2023-02-23T10:55:23;97980.88;;;10.15;99.70
59106;BME280;44891;50.204;8.132;2023-02-23T10:59:26;97982.78;;;10.03;100.00
59106;BME280;44891;50.204;8.132;2023-02-23T11:03:29;97984.06;;;10.00;100.00
59106;BME280;44891;50.204;8.132;2023-02-23T11:07:34;97980.41;;;10.01;100.00
59106;BME280;44891;50.204;8.132;2023-02-23T11:11:36;97979.31;;;9.97;100.00
59106;BME280;44891;50.204;8.132;2023-02-23T11:15:37;97978.59;;;10.02;100.00
59106;BME280;44891;50.204;8.132;2023-02-23T11:19:43;97979.63;;;10.01;100.00
59106;BME280;44891;50.204;8.132;2023-02-23T11:23:47;97982.31;;;10.06;100.00
59106;BME280;44891;50.204;8.132;2023-02-23T11:27:50;97985.03;;;10.11;100.00
59106;BME280;44891;50.204;8.132;2023-02-23T11:31:54;97981.91;;;10.14;100.00
59106;BME280;44891;50.204;8.132;2023-02-23T11:35:57;97985.09;;;10.16;99.90
59106;BME280;44891;50.204;8.132;2023-02-23T11:40:01;97985.56;;;10.13;99.79
59106;BME280;44891;50.204;8.132;2023-02-23T11:44:03;97978.75;;;10.12;100.00
59106;BME280;44891;50.204;8.132;2023-02-23T11:48:05;97972.53;;;10.18;99.92
59106;BME280;44891;50.204;8.132;2023-02-23T11:52:11;97962.53;;;10.32;99.65
59106;BME280;44891;50.204;8.132;2023-02-23T11:56:16;97965.50;;;10.41;99.29
59106;BME280;44891;50.204;8.132;2023-02-23T12:00:21;97959.06;;;10.70;98.00
59106;BME280;44891;50.204;8.132;2023-02-23T12:04:25;97952.88;;;10.81;94.47
59106;BME280;44891;50.204;8.132;2023-02-23T12:08:36;97945.06;;;10.86;97.07
59106;BME280;44891;50.204;8.132;2023-02-23T12:12:45;97949.63;;;10.74;93.21
59106;BME280;44891;50.204;8.132;2023-02-23T12:16:50;97942.34;;;10.76;95.09
59106;BME280;44891;50.204;8.132;2023-02-23T12:20:56;97946.03;;;10.80;95.45
59106;BME280;44891;50.204;8.132;2023-02-23T12:25:01;97942.06;;;10.78;93.77
59106;BME280;44891;50.204;8.132;2023-02-23T12:29:08;97941.13;;;10.89;91.04
59106;BME280;44891;50.204;8.132;2023-02-23T12:33:19;97941.44;;;10.93;88.78
59106;BME280;44891;50.204;8.132;2023-02-23T12:37:26;97948.38;;;10.77;90.17
59106;BME280;44891;50.204;8.132;2023-02-23T12:41:32;97957.97;;;10.27;96.56
59106;BME280;44891;50.204;8.132;2023-02-23T12:45:39;97958.97;;;10.04;100.00
59106;BME280;44891;50.204;8.132;2023-02-23T12:49:44;97948.72;;;9.86;100.00
59106;BME280;44891;50.204;8.132;2023-02-23T12:53:48;97946.19;;;9.91;100.00
59106;BME280;44891;50.204;8.132;2023-02-23T12:57:53;97954.34;;;9.95;100.00
59106;BME280;44891;50.204;8.132;2023-02-23T13:02:00;97945.22;;;9.97;100.00
59106;BME280;44891;50.204;8.132;2023-02-23T13:06:05;97949.50;;;9.87;100.00
59106;BME280;44891;50.204;8.132;2023-02-23T13:10:14;97946.66;;;9.71;100.00
59106;BME280;44891;50.204;8.132;2023-02-23T13:14:21;97945.75;;;9.49;100.00
59106;BME280;44891;50.204;8.132;2023-02-23T13:18:31;97947.84;;;9.47;100.00
59106;BME280;44891;50.204;8.132;2023-02-23T13:22:36;97942.44;;;9.53;100.00
59106;BME280;44891;50.204;8.132;2023-02-23T13:26:42;97940.69;;;9.76;100.00
59106;BME280;44891;50.204;8.132;2023-02-23T13:30:46;97951.25;;;9.81;100.00
59106;BME280;44891;50.204;8.132;2023-02-23T13:34:50;97951.00;;;9.99;100.00
59106;BME280;44891;50.204;8.132;2023-02-23T13:38:59;97942.44;;;10.04;100.00
59106;BME280;44891;50.204;8.132;2023-02-23T13:43:07;97952.44;;;10.24;100.00
59106;BME280;44891;50.204;8.132;2023-02-23T13:47:24;97946.84;;;10.37;98.81
59106;BME280;44891;50.204;8.132;2023-02-23T13:51:34;97948.31;;;10.50;97.85
59106;BME280;44891;50.204;8.132;2023-02-23T13:55:44;97948.72;;;10.42;96.10
59106;BME280;44891;50.204;8.132;2023-02-23T13:59:49;97952.75;;;10.49;96.40
59106;BME280;44891;50.204;8.132;2023-02-23T14:03:52;97953.72;;;10.87;92.77
59106;BME280;44891;50.204;8.132;2023-02-23T14:07:57;97950.56;;;10.85;91.27
59106;BME280;44891;50.204;8.132;2023-02-23T14:12:03;97942.56;;;10.53;92.17
59106;BME280;44891;50.204;8.132;2023-02-23T14:16:11;97949.47;;;10.37;93.04
59106;BME280;44891;50.204;8.132;2023-02-23T14:20:14;97944.94;;;10.32;93.72
59106;BME280;44891;50.204;8.132;2023-02-23T14:24:22;97946.38;;;10.23;95.00
59106;BME280;44891;50.204;8.132;2023-02-23T14:28:25;97943.41;;;10.20;96.64
59106;BME280;44891;50.204;8.132;2023-02-23T14:32:37;97947.19;;;10.24;96.27
59106;BME280;44891;50.204;8.132;2023-02-23T14:36:42;97945.09;;;10.26;95.36
59106;BME280;44891;50.204;8.132;2023-02-23T14:40:47;97950.19;;;10.32;94.85
59106;BME280;44891;50.204;8.132;2023-02-23T14:44:51;97945.81;;;10.38;94.13
59106;BME280;44891;50.204;8.132;2023-02-23T14:48:57;97944.34;;;10.47;93.29
59106;BME280;44891;50.204;8.132;2023-02-23T14:53:00;97940.81;;;10.58;92.84
59106;BME280;44891;50.204;8.132;2023-02-23T14:57:05;97937.44;;;10.85;90.45
59106;BME280;44891;50.204;8.132;2023-02-23T15:01:08;97937.09;;;11.03;89.07
59106;BME280;44891;50.204;8.132;2023-02-23T15:05:13;97938.31;;;10.96;88.58
59106;BME280;44891;50.204;8.132;2023-02-23T15:09:17;97936.44;;;10.69;89.11
59106;BME280;44891;50.204;8.132;2023-02-23T15:13:25;97939.16;;;10.52;90.69
59106;BME280;44891;50.204;8.132;2023-02-23T15:17:28;97947.06;;;10.35;90.40
59106;BME280;44891;50.204;8.132;2023-02-23T15:21:32;97956.22;;;10.16;92.80
59106;BME280;44891;50.204;8.132;2023-02-23T15:25:36;97949.09;;;10.12;93.01
59106;BME280;44891;50.204;8.132;2023-02-23T15:29:39;97954.00;;;10.08;92.67
59106;BME280;44891;50.204;8.132;2023-02-23T15:33:41;97950.50;;;10.02;92.84
59106;BME280;44891;50.204;8.132;2023-02-23T15:37:45;97955.88;;;9.91;92.89
59106;BME280;44891;50.204;8.132;2023-02-23T15:41:48;97946.56;;;9.83;92.78
59106;BME280;44891;50.204;8.132;2023-02-23T15:45:52;97953.78;;;9.76;93.39
59106;BME280;44891;50.204;8.132;2023-02-23T15:49:59;97947.28;;;9.78;92.45
59106;BME280;44891;50.204;8.132;2023-02-23T15:54:02;97951.50;;;9.79;93.78
59106;BME280;44891;50.204;8.132;2023-02-23T15:58:11;97952.38;;;9.85;92.04
59106;BME280;44891;50.204;8.132;2023-02-23T16:02:17;97959.38;;;9.79;91.30
59106;BME280;44891;50.204;8.132;2023-02-23T16:06:20;97956.34;;;9.71;91.84
59106;BME280;44891;50.204;8.132;2023-02-23T16:10:23;97967.38;;;9.56;92.50
59106;BME280;44891;50.204;8.132;2023-02-23T16:14:27;97967.63;;;9.54;92.28
59106;BME280;44891;50.204;8.132;2023-02-23T16:18:36;97961.34;;;9.39;93.19
59106;BME280;44891;50.204;8.132;2023-02-23T16:22:39;97964.81;;;9.27;93.99
59106;BME280;44891;50.204;8.132;2023-02-23T16:26:45;97970.84;;;9.28;94.36
59106;BME280;44891;50.204;8.132;2023-02-23T16:30:52;97972.31;;;9.24;94.50
59106;BME280;44891;50.204;8.132;2023-02-23T16:35:00;97983.03;;;9.22;93.96
59106;BME280;44891;50.204;8.132;2023-02-23T16:39:03;97978.44;;;9.30;94.44
59106;BME280;44891;50.204;8.132;2023-02-23T16:43:08;97974.78;;;9.31;94.73
59106;BME280;44891;50.204;8.132;2023-02-23T16:47:30;97978.44;;;9.30;94.98
59106;BME280;44891;50.204;8.132;2023-02-23T16:51:37;97985.56;;;9.17;95.09
59106;BME280;44891;50.204;8.132;2023-02-23T16:55:39;97986.59;;;9.16;95.37
59106;BME280;44891;50.204;8.132;2023-02-23T16:59:41;97982.41;;;9.15;96.19
59106;BME280;44891;50.204;8.132;2023-02-23T17:03:43;97993.34;;;9.12;96.48
59106;BME280;44891;50.204;8.132;2023-02-23T17:07:46;97983.38;;;8.97;98.07
59106;BME280;44891;50.204;8.132;2023-02-23T17:11:49;97989.97;;;9.00;98.61
59106;BME280;44891;50.204;8.132;2023-02-23T17:15:52;97992.34;;;9.02;98.08
59106;BME280;44891;50.204;8.132;2023-02-23T17:19:55;98000.81;;;8.92;99.10
59106;BME280;44891;50.204;8.132;2023-02-23T17:23:58;97988.19;;;8.89;99.79
59106;BME280;44891;50.204;8.132;2023-02-23T17:28:03;97999.34;;;8.84;100.00
59106;BME280;44891;50.204;8.132;2023-02-23T17:32:05;97996.13;;;8.94;99.97
59106;BME280;44891;50.204;8.132;2023-02-23T17:36:07;98005.13;;;8.98;99.34
59106;BME280;44891;50.204;8.132;2023-02-23T17:40:12;98006.13;;;8.97;98.75
59106;BME280;44891;50.204;8.132;2023-02-23T17:44:14;98011.38;;;8.97;98.20
59106;BME280;44891;50.204;8.132;2023-02-23T17:48:16;98008.56;;;8.87;99.01
59106;BME280;44891;50.204;8.132;2023-02-23T17:52:18;98002.78;;;8.85;99.79
59106;BME280;44891;50.204;8.132;2023-02-23T17:56:21;98003.09;;;8.88;99.77
59106;BME280;44891;50.204;8.132;2023-02-23T18:00:23;98000.34;;;8.95;98.96
59106;BME280;44891;50.204;8.132;2023-02-23T18:04:25;97997.50;;;8.96;99.24
59106;BME280;44891;50.204;8.132;2023-02-23T18:08:27;98001.38;;;8.94;98.21
59106;BME280;44891;50.204;8.132;2023-02-23T18:12:30;97999.13;;;8.86;98.16
59106;BME280;44891;50.204;8.132;2023-02-23T18:16:32;98002.19;;;8.83;97.93
59106;BME280;44891;50.204;8.132;2023-02-23T18:20:34;97997.72;;;8.55;100.00
59106;BME280;44891;50.204;8.132;2023-02-23T18:24:36;98001.66;;;8.57;100.00
59106;BME280;44891;50.204;8.132;2023-02-23T18:28:40;97997.09;;;8.64;99.62
59106;BME280;44891;50.204;8.132;2023-02-23T18:32:43;98009.09;;;8.60;100.00
59106;BME280;44891;50.204;8.132;2023-02-23T18:36:45;98007.50;;;8.48;99.03
59106;BME280;44891;50.204;8.132;2023-02-23T18:40:47;98002.94;;;8.55;98.33
59106;BME280;44891;50.204;8.132;2023-02-23T18:44:51;98000.69;;;8.47;98.31
59106;BME280;44891;50.204;8.132;2023-02-23T18:48:52;97997.28;;;8.46;98.36
59106;BME280;44891;50.204;8.132;2023-02-23T18:52:55;97991.56;;;8.49;97.93
59106;BME280;44891;50.204;8.132;2023-02-23T18:56:57;97994.66;;;8.46;97.34
59106;BME280;44891;50.204;8.132;2023-02-23T19:01:00;97995.88;;;8.43;98.39
59106;BME280;44891;50.204;8.132;2023-02-23T19:05:02;97995.06;;;8.31;98.38
59106;BME280;44891;50.204;8.132;2023-02-23T19:09:04;97998.72;;;8.18;98.85
59106;BME280;44891;50.204;8.132;2023-02-23T19:13:09;98002.81;;;8.14;99.20
59106;BME280;44891;50.204;8.132;2023-02-23T19:17:12;97996.78;;;8.14;99.00
59106;BME280;44891;50.204;8.132;2023-02-23T19:21:14;97997.78;;;8.25;98.65
59106;BME280;44891;50.204;8.132;2023-02-23T19:25:16;97999.31;;;8.32;97.42
59106;BME280;44891;50.204;8.132;2023-02-23T19:29:18;97992.25;;;8.21;97.69
59106;BME280;44891;50.204;8.132;2023-02-23T19:33:21;97995.41;;;8.23;97.02
59106;BME280;44891;50.204;8.132;2023-02-23T19:37:23;97993.94;;;8.15;97.97
59106;BME280;44891;50.204;8.132;2023-02-23T19:41:25;97999.53;;;8.19;97.12
59106;BME280;44891;50.204;8.132;2023-02-23T19:45:27;98001.91;;;8.21;96.39
59106;BME280;44891;50.204;8.132;2023-02-23T19:49:30;98001.56;;;8.17;95.68
59106;BME280;44891;50.204;8.132;2023-02-23T19:53:32;98003.03;;;8.01;95.93
59106;BME280;44891;50.204;8.132;2023-02-23T19:57:35;98008.28;;;8.01;96.11
59106;BME280;44891;50.204;8.132;2023-02-23T20:01:37;98008.59;;;7.93;96.84
59106;BME280;44891;50.204;8.132;2023-02-23T20:05:40;98008.38;;;7.95;96.66
59106;BME280;44891;50.204;8.132;2023-02-23T20:09:42;98011.44;;;7.91;96.23
59106;BME280;44891;50.204;8.132;2023-02-23T20:13:43;98018.38;;;7.98;95.38
59106;BME280;44891;50.204;8.132;2023-02-23T20:17:45;98021.69;;;7.93;95.80
59106;BME280;44891;50.204;8.132;2023-02-23T20:21:49;98022.34;;;7.88;95.91
59106;BME280;44891;50.204;8.132;2023-02-23T20:25:51;98034.16;;;7.91;94.78
59106;BME280;44891;50.204;8.132;2023-02-23T20:29:55;98022.56;;;7.99;94.51
59106;BME280;44891;50.204;8.132;2023-02-23T20:33:59;98034.97;;;7.91;94.93
59106;BME280;44891;50.204;8.132;2023-02-23T20:38:03;98036.00;;;8.02;93.40
59106;BME280;44891;50.204;8.132;2023-02-23T20:42:05;98037.13;;;7.95;94.24
59106;BME280;44891;50.204;8.132;2023-02-23T20:46:06;98035.66;;;7.99;93.97
59106;BME280;44891;50.204;8.132;2023-02-23T20:50:08;98033.59;;;7.89;93.88
59106;BME280;44891;50.204;8.132;2023-02-23T20:54:13;98037.81;;;7.90;93.61
59106;BME280;44891;50.204;8.132;2023-02-23T20:58:16;98032.44;;;7.85;94.11
59106;BME280;44891;50.204;8.132;2023-02-23T21:02:23;98030.72;;;7.79;94.44
59106;BME280;44891;50.204;8.132;2023-02-23T21:06:25;98028.34;;;7.77;94.42
59106;BME280;44891;50.204;8.132;2023-02-23T21:10:29;98020.59;;;7.71;94.68
59106;BME280;44891;50.204;8.132;2023-02-23T21:14:31;98031.66;;;7.73;94.24
59106;BME280;44891;50.204;8.132;2023-02-23T21:18:33;98028.00;;;7.74;94.32
59106;BME280;44891;50.204;8.132;2023-02-23T21:22:35;98025.41;;;7.74;94.74
59106;BME280;44891;50.204;8.132;2023-02-23T21:26:38;98027.19;;;7.61;95.77
59106;BME280;44891;50.204;8.132;2023-02-23T21:30:40;98024.22;;;7.58;96.46
59106;BME280;44891;50.204;8.132;2023-02-23T21:34:42;98030.13;;;7.53;96.57
59106;BME280;44891;50.204;8.132;2023-02-23T21:38:45;98026.81;;;7.46;96.32
59106;BME280;44891;50.204;8.132;2023-02-23T21:42:48;98026.13;;;7.51;96.98
59106;BME280;44891;50.204;8.132;2023-02-23T21:46:51;98024.19;;;7.46;96.86